This is the latest recevied weather packets stored in our database for station/object ALAKES. If no packets are shown the sender has not sent any weather packets the latest 10 day(s).
| Time | Temp. | Humidity | Pressure | Rain* | Wind** | Luminosity | Snow |
|---|---|---|---|---|---|---|---|
| 1788009836 | 2.22° C | 87% | - | 0 mm | - | - | - |
| 1788009255 | 2.22° C | 87% | - | 0 mm | - | - | - |
| 1788009210 | 2.22° C | 87% | - | 0 mm | - | - | - |
| 1788008592 | 2.22° C | - | 0 hPa | - | - | - | - |
| 1788007958 | 2.78° C | 86% | - | 0 mm | - | - | - |
| 1788007332 | 2.78° C | 85% | - | 0 mm | - | - | - |
| 1788006712 | 2.78° C | 84% | - | 0 mm | - | - | - |
| 1788006080 | 3.33° C | 82% | - | 0 mm | - | - | - |
| 1788005458 | 3.33° C | 80% | - | 0 mm | - | - | - |
| 1788004836 | 3.89° C | 79% | - | 0 mm | - | - | - |
| 1788004210 | 3.89° C | 77% | - | 0 mm | - | - | - |
| 1788003586 | 4.44° C | 75% | - | 0 mm | - | - | - |
| 1788002962 | 5° C | 72% | - | 0 mm | - | - | - |
| 1788002334 | 6.11° C | 68% | - | 0 mm | - | - | - |
| 1788001719 | 6.67° C | 65% | - | 0 mm | - | - | - |
| 1788001094 | 6.67° C | 62% | - | 0 mm | - | - | - |
| 1788000477 | 7.22° C | 61% | - | 0 mm | - | - | - |
| 1787999857 | 7.22° C | 59% | - | 0 mm | - | - | - |
| 1787999237 | 7.78° C | 58% | - | 0 mm | - | - | - |
| 1787998609 | 7.78° C | 59% | - | 0 mm | - | - | - |
| 1787997992 | 7.22° C | 61% | - | 0 mm | - | - | - |
| 1787997362 | 7.22° C | 65% | - | 0 mm | - | - | - |
| 1787996840 | 7.22° C | 66% | - | 0 mm | - | - | - |
| 1787996744 | 7.22° C | 66% | - | 0 mm | - | - | - |
| 1787996123 | 7.22° C | 68% | - | 0 mm | - | - | - |
* Rain latest 24 hours (hover to see other rain measurements)
** Current wind speed in m/s (hover to see current wind gust speed)